KBLM

Monmouth Executive Airport

Belmar/Farmingdale, New Jersey, USA
METAR KBLM 151856Z AUTO 33005KT 9SM -SN OVC055 M03/M11 A2995 RMK AO2 SNB23 SLP148 P0000 T10331106 FZRANO
Observed Flight Rules
Dec-15 @ 18:56 UTC (48 minutes ago) Visual Flight Rules
Wind Visibility Clouds Conditions
330° at 5 knots 9 miles
  • Overcast at 5,500' AGL
  • Light Snow
Temperatures Readings Precipitation
Current -3°C / 27°F
Dewpoint -11°C / 12°F
Humidity 54%
Altimeter 29.95" Hg
Pressure 1014.8 hPa
Elevation 48
Current Rain 0.005
METAR KBLM 151856Z AUTO 33005KT 9SM -SN OVC055 M03/M11 A2995 RMK AO2 SNB23 SLP148 P0000 T10331106 FZRANO
Observed Flight Rules
Dec-15 @ 18:56 UTC
(48 minutes ago)
VFR
Wind Visibility
330° at 5 knots 9 miles
Clouds
  • Overcast at 5,500' AGL
Conditions
  • Light Snow
Temperature Dewpoint
-3°C / 27°F -11°C / 12°F
Humidity Altimeter Pressure
54% 29.95" Hg 1014.8 hPa
Current Rain
0.005